createdAt,value
2023-04-10T00:01:06.242Z,7.05
2023-04-10T00:03:38.818Z,7.00
2023-04-10T00:06:11.391Z,7.00
2023-04-10T00:08:43.492Z,6.97
2023-04-10T00:11:15.968Z,6.97
2023-04-10T00:13:48.209Z,6.96
2023-04-10T00:16:20.536Z,6.94
2023-04-10T00:18:52.611Z,6.93
2023-04-10T00:21:24.874Z,6.96
2023-04-10T00:23:56.936Z,6.94
2023-04-10T00:26:28.909Z,6.93
2023-04-10T00:29:01.623Z,6.92
2023-04-10T00:31:34.009Z,6.93
2023-04-10T00:34:06.265Z,6.91
2023-04-10T00:36:38.490Z,7.00
2023-04-10T00:39:11.631Z,7.21
2023-04-10T00:41:43.760Z,7.35
2023-04-10T00:44:15.969Z,7.25
2023-04-10T00:46:48.011Z,7.12
2023-04-10T00:49:20.365Z,7.02
2023-04-10T00:51:52.627Z,6.95
2023-04-10T00:54:25.569Z,6.94
2023-04-10T00:56:58.859Z,6.91
2023-04-10T00:59:31.739Z,6.98
2023-04-10T01:02:04.552Z,7.02
2023-04-10T01:04:37.685Z,7.10
2023-04-10T01:07:15.313Z,7.15
2023-04-10T01:09:56.085Z,7.28
2023-04-10T01:12:49.965Z,7.26
2023-04-10T01:15:24.932Z,7.25
2023-04-10T01:18:03.226Z,7.36
2023-04-10T01:20:39.413Z,7.40
2023-04-10T01:23:44.831Z,7.38
2023-04-10T01:26:22.531Z,7.26
2023-04-10T01:29:01.823Z,7.32
2023-04-10T01:31:42.606Z,7.36
2023-04-10T01:34:20.699Z,7.42
2023-04-10T01:36:59.142Z,7.45
2023-04-10T01:39:36.466Z,7.46
2023-04-10T01:42:12.124Z,7.50
2023-04-10T01:44:50.225Z,7.49
2023-04-10T01:47:24.550Z,7.52
2023-04-10T01:49:58.731Z,7.52
2023-04-10T01:52:32.378Z,7.44
2023-04-10T01:55:13.139Z,7.35
2023-04-10T01:57:50.538Z,7.34
2023-04-10T02:00:23.243Z,7.27
2023-04-10T02:02:58.767Z,7.24
2023-04-10T02:05:41.050Z,7.21
2023-04-10T02:08:16.508Z,7.16
2023-04-10T02:10:56.242Z,7.16
2023-04-10T02:13:32.295Z,7.15
2023-04-10T02:16:09.075Z,7.20
2023-04-10T02:18:42.567Z,7.24
2023-04-10T02:21:15.626Z,7.30
2023-04-10T02:23:48.474Z,7.25
2023-04-10T02:26:20.844Z,7.32
2023-04-10T02:28:53.207Z,7.31
2023-04-10T02:31:25.618Z,7.36
2023-04-10T02:33:57.872Z,7.34
2023-04-10T02:36:30.508Z,7.35
2023-04-10T02:39:02.883Z,7.34
2023-04-10T02:41:35.469Z,7.29
2023-04-10T02:44:08.487Z,7.29
2023-04-10T02:46:42.204Z,7.21
2023-04-10T02:49:14.775Z,7.13
2023-04-10T02:51:46.903Z,7.08
2023-04-10T02:54:19.167Z,7.04
2023-04-10T02:56:51.381Z,7.04
2023-04-10T02:59:23.824Z,7.11
2023-04-10T03:01:56.195Z,7.24
2023-04-10T03:04:29.327Z,7.30
2023-04-10T03:07:01.486Z,7.32
2023-04-10T03:09:33.723Z,7.39
2023-04-10T03:12:06.175Z,7.39
2023-04-10T03:14:38.600Z,7.37
2023-04-10T03:17:10.769Z,7.41
2023-04-10T03:19:42.927Z,7.59
2023-04-10T03:22:15.175Z,7.50
2023-04-10T03:24:47.375Z,7.46
2023-04-10T03:27:20.850Z,7.55
2023-04-10T03:29:53.081Z,7.59
2023-04-10T03:32:25.795Z,7.56
2023-04-10T03:34:58.724Z,7.46
2023-04-10T03:37:31.866Z,7.42
2023-04-10T03:40:07.113Z,7.40
2023-04-10T03:42:39.736Z,7.44
2023-04-10T03:45:14.297Z,7.50
2023-04-10T03:47:46.514Z,7.49
2023-04-10T03:50:20.668Z,7.51
2023-04-10T03:52:57.882Z,7.46
2023-04-10T03:55:30.975Z,7.49
2023-04-10T03:58:03.448Z,7.61
2023-04-10T04:00:36.530Z,7.76
2023-04-10T04:03:27.121Z,7.91
2023-04-10T04:06:32.398Z,7.95
2023-04-10T04:09:17.557Z,7.83
2023-04-10T04:12:02.782Z,7.72
2023-04-10T04:14:53.588Z,7.73
2023-04-10T04:17:46.358Z,7.71
2023-04-10T04:20:37.035Z,7.70
2023-04-10T04:23:27.604Z,7.70
2023-04-10T04:26:10.765Z,7.63
2023-04-10T04:29:15.159Z,7.60
2023-04-10T04:31:54.037Z,7.60
2023-04-10T04:34:46.723Z,7.60
2023-04-10T04:37:27.185Z,7.59
2023-04-10T04:40:32.161Z,7.49
2023-04-10T04:43:12.425Z,7.42
2023-04-10T04:46:03.422Z,7.44
2023-04-10T04:48:59.007Z,7.48
2023-04-10T04:51:40.437Z,7.58
2023-04-10T04:54:31.961Z,7.75
2023-04-10T04:57:39.883Z,7.89
2023-04-10T05:00:25.249Z,7.97
2023-04-10T05:03:07.110Z,8.00
2023-04-10T05:05:55.238Z,7.94
2023-04-10T05:08:38.760Z,7.87
2023-04-10T05:11:16.916Z,7.85
2023-04-10T05:14:18.578Z,7.80
2023-04-10T05:17:15.294Z,7.80
2023-04-10T05:19:51.142Z,7.79
2023-04-10T05:22:43.847Z,7.87
2023-04-10T05:25:39.569Z,7.97
2023-04-10T05:28:22.929Z,7.98
2023-04-10T05:31:05.382Z,7.92
2023-04-10T05:33:43.876Z,7.88
2023-04-10T05:36:36.921Z,7.88
2023-04-10T05:39:28.575Z,7.86
2023-04-10T05:42:17.062Z,7.88
2023-04-10T05:45:10.207Z,7.89
2023-04-10T05:48:01.177Z,7.94
2023-04-10T05:51:03.920Z,8.05
2023-04-10T05:54:05.831Z,8.09
2023-04-10T05:56:52.438Z,8.12
2023-04-10T05:59:43.500Z,8.13
2023-04-10T06:02:36.258Z,8.16
2023-04-10T06:05:09.495Z,8.22
2023-04-10T06:07:42.281Z,8.28
2023-04-10T06:10:15.195Z,8.38
2023-04-10T06:12:48.295Z,8.43
2023-04-10T06:15:21.339Z,8.46
2023-04-10T06:17:54.286Z,8.46
2023-04-10T06:20:26.697Z,8.50
2023-04-10T06:22:59.783Z,8.50
2023-04-10T06:25:32.679Z,8.54
2023-04-10T06:28:05.465Z,8.62
2023-04-10T06:30:38.598Z,8.66
2023-04-10T06:33:12.239Z,8.68
2023-04-10T06:35:51.035Z,8.70
2023-04-10T06:38:25.866Z,8.71
2023-04-10T06:40:58.299Z,8.73
2023-04-10T06:43:32.003Z,8.74
2023-04-10T06:46:05.112Z,8.75
2023-04-10T06:48:38.469Z,8.81
2023-04-10T06:51:11.468Z,8.85
2023-04-10T06:53:44.026Z,8.91
2023-04-10T06:56:16.403Z,8.99
2023-04-10T06:58:48.742Z,9.03
2023-04-10T07:01:21.125Z,9.12
2023-04-10T07:03:53.594Z,9.18
2023-04-10T07:06:26.740Z,9.26
2023-04-10T07:08:58.876Z,9.26
2023-04-10T07:11:31.156Z,9.26
2023-04-10T07:14:03.729Z,9.28
2023-04-10T07:16:36.235Z,9.22
2023-04-10T07:19:08.648Z,9.32
2023-04-10T07:21:41.162Z,9.37
2023-04-10T07:24:13.293Z,9.44
2023-04-10T07:26:45.913Z,9.55
2023-04-10T07:29:18.660Z,9.65
2023-04-10T07:31:51.013Z,9.70
2023-04-10T07:34:24.291Z,9.73
2023-04-10T07:36:56.829Z,9.69
2023-04-10T07:39:29.445Z,9.63
2023-04-10T07:42:01.706Z,9.60
2023-04-10T07:44:34.428Z,9.55
2023-04-10T07:47:07.753Z,9.61
2023-04-10T07:49:41.430Z,9.64
2023-04-10T07:52:13.600Z,9.65
2023-04-10T07:54:45.702Z,9.68
2023-04-10T07:57:17.844Z,9.72
2023-04-10T07:59:50.117Z,9.74
2023-04-10T08:02:22.410Z,9.73
2023-04-10T08:04:55.118Z,9.78
2023-04-10T08:07:27.838Z,9.85
2023-04-10T08:09:59.964Z,9.88
2023-04-10T08:12:34.313Z,9.95
2023-04-10T08:15:07.962Z,9.98
2023-04-10T08:17:40.217Z,10.00
2023-04-10T08:20:14.598Z,10.08
2023-04-10T08:22:46.723Z,10.16
2023-04-10T08:25:19.022Z,10.21
2023-04-10T08:27:51.120Z,10.24
2023-04-10T08:30:23.222Z,10.32
2023-04-10T08:32:56.549Z,10.40
2023-04-10T08:35:28.626Z,10.41
2023-04-10T08:38:12.801Z,10.36
2023-04-10T08:40:46.681Z,10.32
2023-04-10T08:43:18.788Z,10.23
2023-04-10T08:45:53.535Z,10.11
2023-04-10T08:48:30.973Z,10.13
2023-04-10T08:51:06.138Z,10.17
2023-04-10T08:53:44.825Z,10.15
2023-04-10T08:56:19.654Z,10.16
2023-04-10T08:58:54.293Z,10.19
2023-04-10T09:01:26.815Z,10.23
2023-04-10T09:03:59.936Z,10.14
2023-04-10T09:06:32.886Z,10.14
2023-04-10T09:09:06.784Z,10.15
2023-04-10T09:12:04.197Z,10.13
2023-04-10T09:14:38.404Z,10.10
2023-04-10T09:17:21.598Z,10.16
2023-04-10T09:19:56.060Z,10.19
2023-04-10T09:22:35.106Z,10.20
2023-04-10T09:25:28.449Z,10.23
2023-04-10T09:28:06.286Z,10.23
2023-04-10T09:30:41.279Z,10.26
2023-04-10T09:33:28.185Z,10.26
2023-04-10T09:36:01.765Z,10.23
2023-04-10T09:38:37.242Z,10.24
2023-04-10T09:41:13.322Z,10.25
2023-04-10T09:43:46.356Z,10.19
2023-04-10T09:46:29.309Z,10.13
2023-04-10T09:49:05.202Z,10.18
2023-04-10T09:51:37.219Z,10.25
2023-04-10T09:54:09.556Z,10.37
2023-04-10T09:56:42.988Z,10.49
2023-04-10T09:59:17.591Z,10.69
2023-04-10T10:01:50.138Z,10.92
2023-04-10T10:04:22.567Z,11.09
2023-04-10T10:06:55.092Z,11.26
2023-04-10T10:09:29.406Z,11.37
2023-04-10T10:12:03.364Z,11.46
2023-04-10T10:14:39.594Z,11.52
2023-04-10T10:17:13.593Z,11.62
2023-04-10T10:19:52.725Z,11.72
2023-04-10T10:22:28.943Z,11.80
2023-04-10T10:25:03.731Z,11.82
2023-04-10T10:27:41.178Z,11.90
2023-04-10T10:30:28.847Z,12.04
2023-04-10T10:33:03.998Z,12.16
2023-04-10T10:35:37.906Z,12.30
2023-04-10T10:38:11.769Z,12.37
2023-04-10T10:40:53.074Z,12.47
2023-04-10T10:43:38.065Z,12.54
2023-04-10T10:46:14.165Z,12.55
2023-04-10T10:48:59.254Z,12.67
2023-04-10T10:51:48.720Z,12.80
2023-04-10T10:54:44.534Z,12.88
2023-04-10T10:57:48.336Z,13.00
2023-04-10T11:00:21.032Z,13.07
2023-04-10T11:03:31.732Z,13.17
2023-04-10T11:06:07.253Z,13.22
2023-04-10T11:08:44.404Z,13.28
2023-04-10T11:11:20.149Z,13.31
2023-04-10T11:14:21.621Z,13.36
2023-04-10T11:16:54.026Z,13.29
2023-04-10T11:19:26.608Z,13.23
2023-04-10T11:22:05.849Z,13.26
2023-04-10T11:24:59.832Z,13.27
2023-04-10T11:27:49.858Z,13.33
2023-04-10T11:30:33.505Z,13.47
2023-04-10T11:33:07.239Z,13.55
2023-04-10T11:35:40.089Z,13.53
2023-04-10T11:38:17.254Z,13.56
2023-04-10T11:41:06.720Z,13.58
2023-04-10T11:43:39.373Z,13.76
2023-04-10T11:46:12.242Z,14.02
2023-04-10T11:48:46.767Z,14.21
2023-04-10T11:51:19.105Z,14.35
2023-04-10T11:53:51.347Z,14.43
2023-04-10T11:56:24.106Z,14.43
2023-04-10T11:58:57.303Z,14.47
2023-04-10T12:01:29.881Z,14.47
2023-04-10T12:04:03.142Z,14.43
2023-04-10T12:06:35.332Z,14.57
2023-04-10T12:09:17.708Z,14.54
2023-04-10T12:11:54.814Z,14.62
2023-04-10T12:14:33.377Z,14.56
2023-04-10T12:17:07.514Z,14.49
2023-04-10T12:19:41.788Z,14.43
2023-04-10T12:22:15.909Z,14.43
2023-04-10T12:24:49.647Z,14.29
2023-04-10T12:27:23.036Z,14.19
2023-04-10T12:29:56.582Z,14.17
2023-04-10T12:32:28.954Z,14.18
2023-04-10T12:35:01.721Z,14.12
2023-04-10T12:37:51.636Z,14.12
2023-04-10T12:40:24.825Z,14.02
2023-04-10T12:42:56.999Z,13.97
2023-04-10T12:45:45.527Z,14.00
2023-04-10T12:48:25.707Z,14.02
2023-04-10T12:50:59.070Z,14.09
2023-04-10T12:53:31.416Z,14.15
2023-04-10T12:56:06.780Z,14.15
2023-04-10T12:58:39.455Z,14.17
2023-04-10T13:01:14.311Z,14.19
2023-04-10T13:03:49.103Z,14.22
2023-04-10T13:06:21.985Z,14.21
2023-04-10T13:08:56.197Z,14.23
2023-04-10T13:11:28.774Z,14.11
2023-04-10T13:14:01.073Z,13.93
2023-04-10T13:16:33.608Z,13.90
2023-04-10T13:19:06.221Z,13.90
2023-04-10T13:21:38.299Z,13.94
2023-04-10T13:24:10.498Z,14.01
2023-04-10T13:26:42.569Z,14.16
2023-04-10T13:29:14.584Z,14.68
2023-04-10T13:31:46.867Z,15.63
2023-04-10T13:34:19.044Z,16.59
2023-04-10T13:36:51.204Z,17.76
2023-04-10T13:39:23.307Z,19.48
2023-04-10T13:41:55.936Z,20.98
2023-04-10T13:44:28.458Z,22.33
2023-04-10T13:47:00.906Z,23.60
2023-04-10T13:49:33.313Z,25.05
2023-04-10T13:52:05.512Z,25.98
2023-04-10T13:54:38.346Z,26.16
2023-04-10T13:57:12.195Z,24.65
2023-04-10T13:59:44.439Z,24.39
2023-04-10T14:02:16.809Z,24.18
2023-04-10T14:04:49.129Z,23.84
2023-04-10T14:07:21.621Z,22.93
2023-04-10T14:09:53.903Z,23.00
2023-04-10T14:12:26.320Z,21.56
2023-04-10T14:14:58.586Z,20.77
2023-04-10T14:17:30.915Z,19.81
2023-04-10T14:20:03.170Z,19.27
2023-04-10T14:22:35.336Z,18.95
2023-04-10T14:25:13.705Z,18.86
2023-04-10T14:27:46.709Z,18.61
2023-04-10T14:30:18.768Z,18.53
2023-04-10T14:32:51.193Z,18.74
2023-04-10T14:35:23.509Z,20.31
2023-04-10T14:37:55.730Z,21.64
2023-04-10T14:40:28.158Z,22.71
2023-04-10T14:43:00.631Z,23.55
2023-04-10T14:45:32.918Z,24.37
2023-04-10T14:48:05.533Z,24.92
2023-04-10T14:50:37.711Z,25.51
2023-04-10T14:53:11.500Z,25.89
2023-04-10T14:55:43.928Z,26.52
2023-04-10T14:58:15.999Z,26.94
2023-04-10T15:00:50.956Z,26.41
2023-04-10T15:03:25.342Z,25.03
2023-04-10T15:06:03.576Z,24.74
2023-04-10T15:08:35.987Z,25.27
2023-04-10T15:11:09.258Z,25.52
2023-04-10T15:13:41.776Z,25.86
2023-04-10T15:16:14.139Z,25.74
2023-04-10T15:18:47.692Z,24.25
2023-04-10T15:21:20.708Z,22.95
2023-04-10T15:23:53.502Z,21.78
2023-04-10T15:26:26.357Z,21.33
2023-04-10T15:28:58.654Z,20.79
2023-04-10T15:31:30.984Z,20.84
2023-04-10T15:34:03.346Z,21.52
2023-04-10T15:36:35.739Z,21.35
2023-04-10T15:39:08.771Z,20.47
2023-04-10T15:41:41.307Z,19.48
2023-04-10T15:44:13.655Z,18.90
2023-04-10T15:46:47.302Z,18.40
2023-04-10T15:49:29.939Z,17.97
2023-04-10T15:52:09.575Z,17.56
2023-04-10T15:54:42.567Z,17.28
2023-04-10T15:57:15.421Z,16.93
2023-04-10T15:59:48.073Z,16.63
2023-04-10T16:02:20.618Z,16.30
2023-04-10T16:04:53.061Z,16.03
2023-04-10T16:07:25.410Z,15.75
2023-04-10T16:09:58.550Z,15.46
2023-04-10T16:12:30.911Z,15.28
2023-04-10T16:15:04.821Z,15.04
2023-04-10T16:17:37.327Z,14.80
2023-04-10T16:20:10.871Z,14.67
2023-04-10T16:22:43.436Z,14.54
2023-04-10T16:25:15.883Z,14.36
2023-04-10T16:27:49.151Z,14.26
2023-04-10T16:30:21.836Z,14.08
2023-04-10T16:32:54.338Z,13.97
2023-04-10T16:35:26.794Z,13.82
2023-04-10T16:37:59.565Z,13.73
2023-04-10T16:40:33.344Z,13.63
2023-04-10T16:43:05.507Z,13.42
2023-04-10T16:45:37.699Z,13.24
2023-04-10T16:48:10.287Z,13.12
2023-04-10T16:50:42.726Z,13.04
2023-04-10T16:53:15.510Z,13.01
2023-04-10T16:55:47.913Z,12.95
2023-04-10T16:58:20.591Z,12.85
2023-04-10T17:00:53.256Z,12.73
2023-04-10T17:03:25.790Z,12.66
2023-04-10T17:05:57.934Z,12.64
2023-04-10T17:08:30.519Z,12.51
2023-04-10T17:11:03.061Z,12.37
2023-04-10T17:13:37.162Z,12.24
2023-04-10T17:16:11.256Z,12.13
2023-04-10T17:18:45.228Z,12.05
2023-04-10T17:21:17.952Z,11.98
2023-04-10T17:23:50.494Z,11.85
2023-04-10T17:26:25.118Z,11.72
2023-04-10T17:28:57.875Z,11.69
2023-04-10T17:31:31.517Z,11.69
2023-04-10T17:34:04.139Z,11.67
2023-04-10T17:36:36.305Z,11.63
2023-04-10T17:39:08.617Z,11.56
2023-04-10T17:41:40.858Z,11.44
2023-04-10T17:44:13.342Z,11.29
2023-04-10T17:46:45.628Z,11.10
2023-04-10T17:49:18.405Z,10.94
2023-04-10T17:51:51.236Z,10.82
2023-04-10T17:54:23.800Z,10.70
2023-04-10T17:56:56.908Z,10.61
2023-04-10T17:59:32.834Z,10.55
2023-04-10T18:02:03.770Z,10.48
2023-04-10T18:04:36.767Z,10.41
2023-04-10T18:07:09.246Z,10.38
2023-04-10T18:09:42.842Z,10.32
2023-04-10T18:12:15.814Z,10.21
2023-04-10T18:14:48.638Z,10.14
2023-04-10T18:17:20.917Z,10.04
2023-04-10T18:19:55.888Z,9.92
2023-04-10T18:22:29.445Z,9.83
2023-04-10T18:25:02.276Z,9.72
2023-04-10T18:27:36.245Z,9.63
2023-04-10T18:30:10.930Z,9.54
2023-04-10T18:32:43.471Z,9.41
2023-04-10T18:35:16.556Z,9.26
2023-04-10T18:37:48.860Z,9.21
2023-04-10T18:40:22.447Z,9.20
2023-04-10T18:42:54.818Z,9.22
2023-04-10T18:45:36.699Z,9.21
2023-04-10T18:48:09.818Z,9.00
2023-04-10T18:50:42.257Z,8.91
2023-04-10T18:53:14.959Z,8.81
2023-04-10T18:55:58.194Z,8.75
2023-04-10T18:58:32.409Z,8.79
2023-04-10T19:01:06.239Z,8.93
2023-04-10T19:03:41.690Z,9.02
2023-04-10T19:06:15.030Z,9.10
2023-04-10T19:08:47.604Z,9.22
2023-04-10T19:11:21.364Z,9.11
2023-04-10T19:13:56.031Z,9.09
2023-04-10T19:16:29.330Z,9.14
2023-04-10T19:19:02.902Z,9.12
2023-04-10T19:21:35.914Z,9.03
2023-04-10T19:24:08.940Z,8.94
2023-04-10T19:26:41.742Z,8.81
2023-04-10T19:29:14.942Z,8.78
2023-04-10T19:31:49.290Z,8.72
2023-04-10T19:34:23.883Z,8.66
2023-04-10T19:36:57.399Z,8.62
2023-04-10T19:39:33.181Z,8.57
2023-04-10T19:42:05.812Z,8.56
2023-04-10T19:44:41.564Z,8.52
2023-04-10T19:47:18.390Z,8.49
2023-04-10T19:49:51.719Z,8.26
2023-04-10T19:52:24.917Z,8.12
2023-04-10T19:54:58.282Z,8.02
2023-04-10T19:57:31.199Z,7.99
2023-04-10T20:00:03.486Z,7.90
2023-04-10T20:02:47.273Z,7.81
2023-04-10T20:05:19.786Z,7.73
2023-04-10T20:07:52.074Z,7.57
2023-04-10T20:10:25.233Z,7.60
2023-04-10T20:12:57.953Z,7.66
2023-04-10T20:15:32.921Z,7.67
2023-04-10T20:18:05.237Z,7.65
2023-04-10T20:20:37.906Z,7.49
2023-04-10T20:23:10.366Z,7.42
2023-04-10T20:25:43.014Z,7.35
2023-04-10T20:28:16.909Z,7.33
2023-04-10T20:30:51.939Z,7.34
2023-04-10T20:33:25.638Z,7.37
2023-04-10T20:35:59.312Z,7.37
2023-04-10T20:38:32.514Z,7.34
2023-04-10T20:41:05.305Z,7.32
2023-04-10T20:43:39.108Z,7.31
2023-04-10T20:46:12.392Z,7.33
2023-04-10T20:48:45.546Z,7.33
2023-04-10T20:51:18.659Z,7.31
2023-04-10T20:53:51.191Z,7.24
2023-04-10T20:56:32.851Z,7.14
2023-04-10T20:59:12.774Z,7.05
2023-04-10T21:01:44.936Z,7.01
2023-04-10T21:04:17.715Z,6.98
2023-04-10T21:06:49.994Z,6.97
2023-04-10T21:09:22.470Z,6.96
2023-04-10T21:11:54.577Z,6.91
2023-04-10T21:14:26.911Z,6.87
2023-04-10T21:16:59.775Z,6.85
2023-04-10T21:19:31.921Z,6.83
2023-04-10T21:22:04.354Z,6.82
2023-04-10T21:24:36.801Z,6.75
2023-04-10T21:27:08.947Z,6.67
2023-04-10T21:29:41.209Z,6.66
2023-04-10T21:32:13.594Z,6.62
2023-04-10T21:34:45.931Z,6.59
2023-04-10T21:37:18.205Z,6.58
2023-04-10T21:39:50.496Z,6.55
2023-04-10T21:42:22.865Z,6.43
2023-04-10T21:44:56.454Z,6.37
2023-04-10T21:47:29.044Z,6.28
2023-04-10T21:50:01.438Z,6.15
2023-04-10T21:52:33.844Z,6.00
2023-04-10T21:55:06.558Z,5.92
2023-04-10T21:57:38.856Z,5.86
2023-04-10T22:00:14.020Z,5.80
2023-04-10T22:02:46.277Z,5.66
2023-04-10T22:05:18.520Z,5.57
2023-04-10T22:07:51.000Z,5.47
2023-04-10T22:10:23.400Z,5.40
2023-04-10T22:12:55.798Z,5.38
2023-04-10T22:15:28.291Z,5.42
2023-04-10T22:18:00.422Z,5.46
2023-04-10T22:20:32.678Z,5.47
2023-04-10T22:23:05.596Z,5.48
2023-04-10T22:25:38.865Z,5.47
2023-04-10T22:28:11.067Z,5.49
2023-04-10T22:30:43.317Z,5.49
2023-04-10T22:33:15.868Z,5.51
2023-04-10T22:35:48.092Z,5.60
2023-04-10T22:38:20.533Z,5.57
2023-04-10T22:40:54.845Z,5.47
2023-04-10T22:43:27.104Z,5.42
2023-04-10T22:45:59.391Z,5.46
2023-04-10T22:48:31.676Z,5.44
2023-04-10T22:51:04.018Z,5.41
2023-04-10T22:53:36.432Z,5.41
2023-04-10T22:56:09.922Z,5.37
2023-04-10T22:58:42.624Z,5.26
2023-04-10T23:01:14.784Z,5.12
2023-04-10T23:03:47.042Z,5.12
2023-04-10T23:06:19.147Z,5.12
2023-04-10T23:08:52.003Z,5.20
2023-04-10T23:11:24.321Z,5.20
2023-04-10T23:13:56.486Z,5.20
2023-04-10T23:16:28.871Z,5.22
2023-04-10T23:19:01.174Z,5.14
2023-04-10T23:21:33.311Z,5.03
2023-04-10T23:24:05.717Z,4.94
2023-04-10T23:26:38.552Z,4.80
2023-04-10T23:29:11.048Z,4.71
2023-04-10T23:31:43.254Z,4.59
2023-04-10T23:34:15.710Z,4.52
2023-04-10T23:36:48.302Z,4.40
2023-04-10T23:39:20.913Z,4.32
2023-04-10T23:41:52.988Z,4.31
2023-04-10T23:44:25.202Z,4.34
2023-04-10T23:46:57.652Z,4.39
2023-04-10T23:49:29.973Z,4.54
2023-04-10T23:52:03.331Z,4.70
2023-04-10T23:54:35.440Z,4.77
2023-04-10T23:57:07.565Z,4.89
2023-04-10T23:59:39.622Z,4.89
